Time;durP1;ratioP1;P1;durP2;ratioP2;P2;SDS_P1;SDS_P2;PMS_P1;PMS_P2;Temp;Humidity;BMP_temperature;BMP_pressure;BME280_temperature;BME280_humidity;BME280_pressure;Samples;Min_cycle;Max_cycle;Signal;HPM_P1;HPM_P2
2023/08/04 00:01:12;;;;;;;8.20;3.85;;;;;;;;;;5049643;28;20620;-72
2023/08/04 00:03:38;;;;;;;6.97;2.72;;;;;;;;;;5054896;28;20040;-73
2023/08/04 00:06:08;;;;;;;9.60;3.22;;;;;;;;;;5068765;28;20035;-72
2023/08/04 00:08:35;;;;;;;7.22;3.35;;;;;;;;;;5050673;28;20028;-72
2023/08/04 00:11:01;;;;;;;7.28;3.30;;;;;;;;;;5053639;28;20036;-72
2023/08/04 00:13:27;;;;;;;12.70;3.38;;;;;;;;;;5056783;28;20031;-72
2023/08/04 00:15:53;;;;;;;7.10;3.28;;;;;;;;;;5053008;28;20029;-73
2023/08/04 00:18:19;;;;;;;7.72;3.67;;;;;;;;;;5058593;28;20028;-73
2023/08/04 00:20:45;;;;;;;11.65;3.03;;;;;;;;;;5054013;28;20028;-72
2023/08/04 00:23:11;;;;;;;6.20;3.75;;;;;;;;;;5055334;28;20040;-72
2023/08/04 00:25:37;;;;;;;6.47;3.38;;;;;;;;;;5059654;28;20230;-72
2023/08/04 00:28:04;;;;;;;6.18;3.05;;;;;;;;;;5055713;28;20028;-72
2023/08/04 00:30:30;;;;;;;4.95;3.17;;;;;;;;;;5058051;28;20036;-72
2023/08/04 00:32:56;;;;;;;6.93;3.50;;;;;;;;;;5066691;28;20030;-72
2023/08/04 00:35:22;;;;;;;8.43;3.40;;;;;;;;;;5064285;28;20048;-72
2023/08/04 00:37:49;;;;;;;9.27;3.47;;;;;;;;;;5056903;28;20029;-73
2023/08/04 00:40:15;;;;;;;7.57;3.72;;;;;;;;;;5056586;28;20041;-72
2023/08/04 00:42:41;;;;;;;7.30;4.03;;;;;;;;;;5052132;28;20122;-72
2023/08/04 00:45:07;;;;;;;7.57;3.50;;;;;;;;;;5062574;28;20465;-72
2023/08/04 00:47:35;;;;;;;6.70;3.33;;;;;;;;;;5058239;28;20032;-73
2023/08/04 00:50:03;;;;;;;8.18;4.47;;;;;;;;;;5062501;28;20094;-73
2023/08/04 00:52:30;;;;;;;10.75;3.58;;;;;;;;;;5056973;28;20472;-72
2023/08/04 00:54:56;;;;;;;8.15;3.95;;;;;;;;;;5051110;28;20076;-73
2023/08/04 00:57:22;;;;;;;7.18;4.00;;;;;;;;;;5053446;28;20475;-71
2023/08/04 00:59:48;;;;;;;8.98;4.28;;;;;;;;;;5050713;28;20143;-72
2023/08/04 01:02:14;;;;;;;10.73;3.65;;;;;;;;;;5052790;28;20071;-72
2023/08/04 01:04:41;;;;;;;7.57;3.83;;;;;;;;;;5048164;28;20056;-72
2023/08/04 01:07:17;;;;;;;10.88;4.53;;;;;;;;;;5067282;28;20016;-72
2023/08/04 01:09:53;;;;;;;9.52;3.17;;;;;;;;;;5056822;28;20480;-72
2023/08/04 01:12:42;;;;;;;10.30;4.40;;;;;;;;;;5051585;28;20033;-73
2023/08/04 01:15:10;;;;;;;11.43;4.38;;;;;;;;;;5059915;28;20016;-73
2023/08/04 01:17:36;;;;;;;8.73;3.55;;;;;;;;;;5061721;28;20029;-72
2023/08/04 01:20:05;;;;;;;11.30;3.85;;;;;;;;;;5066395;28;20025;-72
2023/08/04 01:22:33;;;;;;;9.45;4.25;;;;;;;;;;5055247;28;20033;-72
2023/08/04 01:24:59;;;;;;;8.25;3.55;;;;;;;;;;5063827;28;20496;-72
2023/08/04 01:27:30;;;;;;;12.80;3.92;;;;;;;;;;5056308;28;20029;-72
2023/08/04 01:29:57;;;;;;;8.43;3.95;;;;;;;;;;5058127;28;20129;-72
2023/08/04 01:32:24;;;;;;;22.77;4.93;;;;;;;;;;5055465;28;20027;-72
2023/08/04 01:34:50;;;;;;;8.63;4.10;;;;;;;;;;5058698;28;20045;-72
2023/08/04 01:37:16;;;;;;;8.98;4.03;;;;;;;;;;5058642;28;20047;-72
2023/08/04 01:39:42;;;;;;;8.70;4.65;;;;;;;;;;5064044;28;20035;-72
2023/08/04 01:42:09;;;;;;;9.02;4.60;;;;;;;;;;5061262;28;20399;-71
2023/08/04 01:44:35;;;;;;;10.88;4.32;;;;;;;;;;5059939;28;20024;-72
2023/08/04 01:47:01;;;;;;;8.80;4.45;;;;;;;;;;5060657;28;20028;-72
2023/08/04 01:49:27;;;;;;;10.75;4.20;;;;;;;;;;5058026;28;20526;-72
2023/08/04 01:51:53;;;;;;;12.57;4.78;;;;;;;;;;5064327;28;20033;-72
2023/08/04 01:54:19;;;;;;;10.10;4.80;;;;;;;;;;5059909;28;20108;-72
2023/08/04 01:56:45;;;;;;;10.85;4.50;;;;;;;;;;5061319;28;20028;-72
2023/08/04 01:59:11;;;;;;;12.18;5.10;;;;;;;;;;5055085;28;20029;-73
2023/08/04 02:01:39;;;;;;;11.15;4.75;;;;;;;;;;5058168;28;20100;-72
2023/08/04 02:04:05;;;;;;;11.18;5.38;;;;;;;;;;5058816;28;20032;-72
2023/08/04 02:06:32;;;;;;;9.45;4.38;;;;;;;;;;5057189;28;20067;-72
2023/08/04 02:08:58;;;;;;;14.55;5.25;;;;;;;;;;5065390;28;20028;-72
2023/08/04 02:11:24;;;;;;;11.57;5.10;;;;;;;;;;5062439;28;20020;-71
2023/08/04 02:13:50;;;;;;;10.23;5.25;;;;;;;;;;5058273;28;20033;-72
2023/08/04 02:16:16;;;;;;;12.60;5.28;;;;;;;;;;5064278;28;20366;-72
2023/08/04 02:18:42;;;;;;;12.10;5.07;;;;;;;;;;5061757;28;20106;-72
2023/08/04 02:21:09;;;;;;;12.27;4.40;;;;;;;;;;5058491;28;20032;-72
2023/08/04 02:23:35;;;;;;;12.73;5.85;;;;;;;;;;5058815;28;20472;-71
2023/08/04 02:26:01;;;;;;;13.18;5.75;;;;;;;;;;5059350;28;20028;-72
2023/08/04 02:28:27;;;;;;;13.52;5.00;;;;;;;;;;5061802;28;20036;-72
2023/08/04 02:30:53;;;;;;;10.57;4.50;;;;;;;;;;5066011;28;20363;-71
2023/08/04 02:33:19;;;;;;;10.00;5.60;;;;;;;;;;5058693;28;20137;-72
2023/08/04 02:35:46;;;;;;;9.93;4.78;;;;;;;;;;5061000;28;20052;-71
2023/08/04 02:38:12;;;;;;;11.50;5.43;;;;;;;;;;5048309;28;20013;-72
2023/08/04 02:40:38;;;;;;;8.77;4.78;;;;;;;;;;5057767;28;20029;-72
2023/08/04 02:43:05;;;;;;;11.07;4.93;;;;;;;;;;5058697;28;20056;-71
2023/08/04 02:45:31;;;;;;;14.63;5.88;;;;;;;;;;5061731;28;20020;-71
2023/08/04 02:47:57;;;;;;;10.27;5.53;;;;;;;;;;5050944;28;20486;-71
2023/08/04 02:50:23;;;;;;;8.43;5.00;;;;;;;;;;5063860;28;20021;-71
2023/08/04 02:52:49;;;;;;;10.10;5.30;;;;;;;;;;5058102;28;20040;-71
2023/08/04 02:55:15;;;;;;;10.90;4.68;;;;;;;;;;5054083;28;20029;-71
2023/08/04 02:57:41;;;;;;;10.77;5.88;;;;;;;;;;5052225;28;20048;-71
2023/08/04 03:00:08;;;;;;;14.15;6.40;;;;;;;;;;5057306;28;20320;-71
2023/08/04 03:02:34;;;;;;;10.48;6.05;;;;;;;;;;5058271;28;20031;-71
2023/08/04 03:05:01;;;;;;;22.00;5.80;;;;;;;;;;5066635;28;20047;-71
2023/08/04 03:07:27;;;;;;;11.43;6.15;;;;;;;;;;5065038;28;20037;-71
2023/08/04 03:09:53;;;;;;;10.65;5.80;;;;;;;;;;5047802;28;20025;-71
2023/08/04 03:12:19;;;;;;;12.48;5.28;;;;;;;;;;5054719;28;20113;-71
2023/08/04 03:14:45;;;;;;;9.60;5.85;;;;;;;;;;5061346;28;20021;-71
2023/08/04 03:17:11;;;;;;;12.27;6.00;;;;;;;;;;5053392;28;20531;-71
2023/08/04 03:19:37;;;;;;;14.27;6.28;;;;;;;;;;5058840;28;20300;-71
2023/08/04 03:22:04;;;;;;;10.98;5.32;;;;;;;;;;5057286;28;20041;-71
2023/08/04 03:24:31;;;;;;;11.82;5.53;;;;;;;;;;5057641;28;20543;-71
2023/08/04 03:26:57;;;;;;;14.40;5.63;;;;;;;;;;5053318;28;20032;-71
2023/08/04 03:29:23;;;;;;;10.98;5.40;;;;;;;;;;5063886;28;20389;-71
2023/08/04 03:31:49;;;;;;;11.73;5.80;;;;;;;;;;5054841;28;20443;-71
2023/08/04 03:34:15;;;;;;;10.35;5.15;;;;;;;;;;5067889;28;20048;-71
2023/08/04 03:36:41;;;;;;;15.77;5.78;;;;;;;;;;5060291;28;20032;-70
2023/08/04 03:39:07;;;;;;;10.07;5.80;;;;;;;;;;5059525;28;20047;-71
2023/08/04 03:41:33;;;;;;;12.93;5.90;;;;;;;;;;5065100;28;20278;-71
2023/08/04 03:43:59;;;;;;;10.60;5.88;;;;;;;;;;5050372;28;20032;-71
2023/08/04 03:46:26;;;;;;;13.20;6.43;;;;;;;;;;5061369;28;20028;-71
2023/08/04 03:48:52;;;;;;;15.55;5.65;;;;;;;;;;5048081;28;20025;-71
2023/08/04 03:51:18;;;;;;;13.20;5.78;;;;;;;;;;5061251;28;20403;-71
2023/08/04 03:53:44;;;;;;;11.57;5.88;;;;;;;;;;5059496;28;20505;-71
2023/08/04 03:56:10;;;;;;;16.02;6.35;;;;;;;;;;5056202;28;20469;-71
2023/08/04 03:58:36;;;;;;;10.30;5.55;;;;;;;;;;5060123;28;20400;-71
2023/08/04 04:01:02;;;;;;;15.63;6.40;;;;;;;;;;5060110;28;20024;-70
2023/08/04 04:03:28;;;;;;;10.27;5.78;;;;;;;;;;5059307;28;20033;-71
2023/08/04 04:05:55;;;;;;;11.88;6.53;;;;;;;;;;5057090;28;20047;-71
2023/08/04 04:08:21;;;;;;;11.38;5.55;;;;;;;;;;5060898;28;20027;-71
2023/08/04 04:10:50;;;;;;;10.23;5.72;;;;;;;;;;5050459;28;20028;-71
2023/08/04 04:13:16;;;;;;;13.32;5.68;;;;;;;;;;5050275;28;20029;-71
2023/08/04 04:15:43;;;;;;;13.70;5.82;;;;;;;;;;5060064;28;20024;-71
2023/08/04 04:18:09;;;;;;;18.00;7.80;;;;;;;;;;5054450;28;20037;-70
2023/08/04 04:20:35;;;;;;;9.82;5.80;;;;;;;;;;5052955;28;20106;-70
2023/08/04 04:23:01;;;;;;;11.88;6.30;;;;;;;;;;5054829;28;20047;-71
2023/08/04 04:25:27;;;;;;;15.02;6.20;;;;;;;;;;5052548;28;20143;-71
2023/08/04 04:27:53;;;;;;;13.68;6.47;;;;;;;;;;5046283;28;20040;-71
2023/08/04 04:30:19;;;;;;;12.10;5.97;;;;;;;;;;5052330;28;20381;-72
2023/08/04 04:32:45;;;;;;;9.13;5.70;;;;;;;;;;5055929;28;20102;-71
2023/08/04 04:35:13;;;;;;;11.52;6.45;;;;;;;;;;5048323;28;20037;-71
2023/08/04 04:37:40;;;;;;;14.50;6.63;;;;;;;;;;5055177;28;20036;-71
2023/08/04 04:40:06;;;;;;;10.98;5.95;;;;;;;;;;5055924;28;20032;-70
2023/08/04 04:42:33;;;;;;;10.80;6.25;;;;;;;;;;5053651;28;20032;-70
2023/08/04 04:45:00;;;;;;;16.35;8.38;;;;;;;;;;5049765;28;20623;-71
2023/08/04 04:47:26;;;;;;;11.80;6.07;;;;;;;;;;5052785;28;20507;-71
2023/08/04 04:49:52;;;;;;;14.52;6.28;;;;;;;;;;5056254;28;20547;-71
2023/08/04 04:52:32;;;;;;;12.25;6.00;;;;;;;;;;5059803;28;20193;-71
2023/08/04 04:54:59;;;;;;;14.43;6.82;;;;;;;;;;5049260;28;20025;-71
2023/08/04 04:57:25;;;;;;;12.60;5.93;;;;;;;;;;5065394;28;20040;-72
2023/08/04 04:59:51;;;;;;;14.32;6.40;;;;;;;;;;5055050;28;20036;-71
2023/08/04 05:02:18;;;;;;;15.23;7.38;;;;;;;;;;5058762;28;20485;-71
2023/08/04 05:04:45;;;;;;;14.13;7.55;;;;;;;;;;5056507;28;20028;-71
2023/08/04 05:07:11;;;;;;;16.17;8.10;;;;;;;;;;5070142;28;20791;-71
2023/08/04 05:09:37;;;;;;;14.10;7.15;;;;;;;;;;5049606;28;20025;-71
2023/08/04 05:12:03;;;;;;;17.33;8.35;;;;;;;;;;5051597;28;21076;-70
2023/08/04 05:14:29;;;;;;;11.93;7.05;;;;;;;;;;5054150;28;20029;-71
2023/08/04 05:16:55;;;;;;;17.30;7.95;;;;;;;;;;5058772;28;20039;-71
2023/08/04 05:19:21;;;;;;;15.52;7.65;;;;;;;;;;5049268;28;20029;-71
2023/08/04 05:21:47;;;;;;;16.30;7.78;;;;;;;;;;5056059;28;20436;-71
2023/08/04 05:24:14;;;;;;;13.48;7.60;;;;;;;;;;5047485;28;20501;-71
2023/08/04 05:26:40;;;;;;;16.42;7.40;;;;;;;;;;5055215;28;20033;-71
2023/08/04 05:29:06;;;;;;;18.73;9.45;;;;;;;;;;5052263;28;20025;-71
2023/08/04 05:31:32;;;;;;;19.73;9.02;;;;;;;;;;5058329;28;20111;-71
2023/08/04 05:34:00;;;;;;;18.20;8.93;;;;;;;;;;5047861;28;20136;-71
2023/08/04 05:36:27;;;;;;;14.65;8.18;;;;;;;;;;5054799;28;20083;-71
2023/08/04 05:38:53;;;;;;;20.20;9.27;;;;;;;;;;5055648;28;20037;-71
2023/08/04 05:41:19;;;;;;;17.30;9.35;;;;;;;;;;5059666;28;20107;-71
2023/08/04 05:43:45;;;;;;;18.38;8.50;;;;;;;;;;5048412;28;20029;-71
2023/08/04 05:46:15;;;;;;;12.77;8.40;;;;;;;;;;5050651;28;20029;-71
2023/08/04 05:48:41;;;;;;;17.65;8.82;;;;;;;;;;5057648;28;20017;-72
2023/08/04 05:51:07;;;;;;;15.63;9.05;;;;;;;;;;5051527;28;20461;-71
2023/08/04 05:53:33;;;;;;;21.10;8.73;;;;;;;;;;5057620;28;20031;-71
2023/08/04 05:55:59;;;;;;;17.98;9.52;;;;;;;;;;5055197;28;20032;-71
2023/08/04 05:58:26;;;;;;;18.92;10.18;;;;;;;;;;5055636;28;20029;-71
2023/08/04 06:00:52;;;;;;;17.27;10.13;;;;;;;;;;5052389;28;20025;-71
2023/08/04 06:03:18;;;;;;;17.15;9.52;;;;;;;;;;5061803;28;20136;-71
2023/08/04 06:05:44;;;;;;;15.85;9.00;;;;;;;;;;5053169;28;20435;-72
2023/08/04 06:08:13;;;;;;;17.27;9.68;;;;;;;;;;5056426;28;20543;-71
2023/08/04 06:10:39;;;;;;;17.73;10.45;;;;;;;;;;5054864;28;20029;-71
2023/08/04 06:13:05;;;;;;;20.48;10.38;;;;;;;;;;5043445;28;20078;-71
2023/08/04 06:15:32;;;;;;;22.00;10.23;;;;;;;;;;5052171;28;20068;-72
2023/08/04 06:17:58;;;;;;;19.92;11.07;;;;;;;;;;5057207;28;20031;-72
2023/08/04 06:20:24;;;;;;;20.35;11.48;;;;;;;;;;5059745;28;20440;-70
2023/08/04 06:22:50;;;;;;;20.50;10.77;;;;;;;;;;5056422;28;20468;-70
2023/08/04 06:25:16;;;;;;;17.08;9.40;;;;;;;;;;5056523;28;20446;-70
2023/08/04 06:27:42;;;;;;;17.67;9.90;;;;;;;;;;5057122;28;20521;-70
2023/08/04 06:30:09;;;;;;;21.85;11.00;;;;;;;;;;5053583;28;20033;-69
2023/08/04 06:32:35;;;;;;;18.45;10.60;;;;;;;;;;5059142;28;20107;-69
2023/08/04 06:35:01;;;;;;;18.05;10.27;;;;;;;;;;5065212;28;20045;-68
2023/08/04 06:37:28;;;;;;;26.80;10.88;;;;;;;;;;5050428;28;20036;-69
2023/08/04 06:39:54;;;;;;;19.75;11.27;;;;;;;;;;5055925;28;20028;-69
2023/08/04 06:42:20;;;;;;;21.27;11.38;;;;;;;;;;5056570;28;20044;-69
2023/08/04 06:44:47;;;;;;;18.17;10.70;;;;;;;;;;5052437;28;20029;-70
2023/08/04 06:47:13;;;;;;;21.13;10.50;;;;;;;;;;5057513;28;20106;-68
2023/08/04 06:49:40;;;;;;;16.25;11.20;;;;;;;;;;5061448;28;20032;-69
2023/08/04 06:52:06;;;;;;;21.75;11.63;;;;;;;;;;5064127;28;20739;-69
2023/08/04 06:54:32;;;;;;;17.58;10.57;;;;;;;;;;5053701;28;20502;-69
2023/08/04 06:56:59;;;;;;;18.77;10.27;;;;;;;;;;5068474;28;20191;-69
2023/08/04 06:59:25;;;;;;;17.98;10.15;;;;;;;;;;5057057;28;20056;-69
2023/08/04 07:01:51;;;;;;;22.73;12.10;;;;;;;;;;5056690;28;20117;-69
2023/08/04 07:04:17;;;;;;;24.85;10.70;;;;;;;;;;5048603;28;20029;-69
2023/08/04 07:06:43;;;;;;;17.35;10.40;;;;;;;;;;5052539;28;20029;-70
2023/08/04 07:09:09;;;;;;;23.77;12.75;;;;;;;;;;5050741;28;20416;-71
2023/08/04 07:11:36;;;;;;;21.27;10.70;;;;;;;;;;5052770;28;20024;-69
2023/08/04 07:14:02;;;;;;;22.90;12.00;;;;;;;;;;5054390;28;20415;-69
2023/08/04 07:16:28;;;;;;;24.52;11.35;;;;;;;;;;5055539;28;20052;-69
2023/08/04 07:18:55;;;;;;;22.75;11.43;;;;;;;;;;5055559;28;20039;-69
2023/08/04 07:21:21;;;;;;;23.33;11.43;;;;;;;;;;5056651;28;20112;-69
2023/08/04 07:23:47;;;;;;;19.83;10.73;;;;;;;;;;5060259;28;20484;-68
2023/08/04 07:26:13;;;;;;;20.10;11.50;;;;;;;;;;5054475;28;20924;-69
2023/08/04 07:28:39;;;;;;;19.60;10.45;;;;;;;;;;5059101;28;20024;-69
2023/08/04 07:31:06;;;;;;;18.52;10.80;;;;;;;;;;5049892;28;20472;-69
2023/08/04 07:33:32;;;;;;;17.75;10.40;;;;;;;;;;5053136;28;20016;-69
2023/08/04 07:35:59;;;;;;;21.92;11.23;;;;;;;;;;5050029;28;20037;-70
2023/08/04 07:38:27;;;;;;;23.88;11.27;;;;;;;;;;5047962;28;20460;-69
2023/08/04 07:40:53;;;;;;;21.02;12.35;;;;;;;;;;5053118;28;20411;-70
2023/08/04 07:43:19;;;;;;;23.83;11.07;;;;;;;;;;5056414;28;20029;-69
2023/08/04 07:45:45;;;;;;;20.38;11.75;;;;;;;;;;5048181;28;20033;-69
2023/08/04 07:48:12;;;;;;;20.85;11.43;;;;;;;;;;5053504;28;20032;-69
2023/08/04 07:50:39;;;;;;;19.13;11.25;;;;;;;;;;5053254;28;20404;-69
2023/08/04 07:53:05;;;;;;;19.65;11.15;;;;;;;;;;5056068;28;20427;-69
2023/08/04 07:55:36;;;;;;;26.38;12.00;;;;;;;;;;5055483;28;20495;-69
2023/08/04 07:58:03;;;;;;;18.77;12.05;;;;;;;;;;5057095;28;20032;-69
2023/08/04 08:00:29;;;;;;;18.23;10.95;;;;;;;;;;5058384;28;20036;-69
2023/08/04 08:02:55;;;;;;;18.60;11.18;;;;;;;;;;5056107;28;20043;-69
2023/08/04 08:05:22;;;;;;;20.50;11.57;;;;;;;;;;5052448;28;20111;-69
2023/08/04 08:07:48;;;;;;;22.40;11.18;;;;;;;;;;5058589;28;20033;-69
2023/08/04 08:10:14;;;;;;;18.77;11.73;;;;;;;;;;5056576;28;20523;-69
2023/08/04 08:12:40;;;;;;;19.27;12.13;;;;;;;;;;5057889;28;20025;-69
2023/08/04 08:15:07;;;;;;;21.05;10.70;;;;;;;;;;5055380;28;20518;-69
2023/08/04 08:17:33;;;;;;;21.13;10.95;;;;;;;;;;5060889;28;20028;-69
2023/08/04 08:19:59;;;;;;;19.80;12.52;;;;;;;;;;5057286;28;20037;-69
2023/08/04 08:22:25;;;;;;;17.40;11.60;;;;;;;;;;5053013;28;20029;-70
2023/08/04 08:24:55;;;;;;;17.50;10.20;;;;;;;;;;5052988;28;20048;-69
2023/08/04 08:27:21;;;;;;;20.20;11.25;;;;;;;;;;5064311;28;20659;-69
2023/08/04 08:29:48;;;;;;;21.08;11.60;;;;;;;;;;5053556;28;20349;-69
2023/08/04 08:32:14;;;;;;;19.88;11.55;;;;;;;;;;5052714;28;20032;-69
2023/08/04 08:34:43;;;;;;;16.38;10.57;;;;;;;;;;5055977;28;20044;-69
2023/08/04 08:37:09;;;;;;;16.23;11.23;;;;;;;;;;5044663;28;20412;-68
2023/08/04 08:39:35;;;;;;;18.17;10.48;;;;;;;;;;5049744;28;20063;-68
2023/08/04 08:42:01;;;;;;;15.13;10.65;;;;;;;;;;5051394;28;20403;-68
2023/08/04 08:44:27;;;;;;;20.55;11.63;;;;;;;;;;5057835;28;20082;-70
2023/08/04 08:46:53;;;;;;;15.40;10.25;;;;;;;;;;5047698;28;20025;-67
2023/08/04 08:49:41;;;;;;;18.17;10.80;;;;;;;;;;5045760;28;20032;-70
2023/08/04 08:52:09;;;;;;;20.65;10.88;;;;;;;;;;5053247;28;20024;-68
2023/08/04 08:54:36;;;;;;;21.13;10.57;;;;;;;;;;5069374;28;20125;-66
2023/08/04 08:57:03;;;;;;;18.17;10.00;;;;;;;;;;5052208;28;20024;-67
2023/08/04 08:59:29;;;;;;;16.40;9.73;;;;;;;;;;5051502;28;20029;-66
2023/08/04 09:01:56;;;;;;;17.17;11.27;;;;;;;;;;5047008;28;20400;-71
2023/08/04 09:04:23;;;;;;;19.15;10.07;;;;;;;;;;5052938;28;20654;-71
2023/08/04 09:06:49;;;;;;;17.98;9.65;;;;;;;;;;5054584;28;20407;-69
2023/08/04 09:09:15;;;;;;;15.25;9.85;;;;;;;;;;5050293;28;20039;-70
2023/08/04 09:11:42;;;;;;;16.13;10.70;;;;;;;;;;5050994;28;20025;-71
2023/08/04 09:14:09;;;;;;;17.60;9.32;;;;;;;;;;5052105;28;20024;-71
2023/08/04 09:16:39;;;;;;;14.85;9.35;;;;;;;;;;5049093;28;20590;-70
2023/08/04 09:19:06;;;;;;;18.80;9.98;;;;;;;;;;5053399;28;20120;-70
2023/08/04 09:21:32;;;;;;;15.30;8.75;;;;;;;;;;5052006;28;20124;-71
2023/08/04 09:23:58;;;;;;;14.93;8.80;;;;;;;;;;5053196;28;20401;-72
2023/08/04 09:26:25;;;;;;;15.90;9.63;;;;;;;;;;5068380;28;20090;-68
2023/08/04 09:29:04;;;;;;;13.27;9.25;;;;;;;;;;5050789;28;20052;-70
2023/08/04 09:31:40;;;;;;;14.35;8.88;;;;;;;;;;5050373;28;20384;-69
2023/08/04 09:34:06;;;;;;;12.90;8.27;;;;;;;;;;5055062;28;20047;-71
2023/08/04 09:36:38;;;;;;;14.10;8.43;;;;;;;;;;5066001;28;20118;-71
2023/08/04 09:39:05;;;;;;;16.35;8.93;;;;;;;;;;5080999;28;20418;-71
2023/08/04 09:41:34;;;;;;;13.30;8.15;;;;;;;;;;5076342;28;20404;-71
2023/08/04 09:44:07;;;;;;;13.48;7.20;;;;;;;;;;5063659;28;20060;-72
2023/08/04 09:46:38;;;;;;;15.20;7.40;;;;;;;;;;5066454;28;20036;-71
2023/08/04 09:49:04;;;;;;;10.55;7.10;;;;;;;;;;5065133;28;20028;-71
2023/08/04 09:51:38;;;;;;;11.20;7.57;;;;;;;;;;5076501;28;20033;-71
2023/08/04 09:54:04;;;;;;;12.65;7.75;;;;;;;;;;5060384;28;20039;-70
2023/08/04 09:56:31;;;;;;;11.55;6.45;;;;;;;;;;5058413;28;20029;-68
2023/08/04 09:58:58;;;;;;;12.20;6.55;;;;;;;;;;5057726;28;20120;-72
2023/08/04 10:01:24;;;;;;;10.80;6.35;;;;;;;;;;5056295;28;20234;-76
2023/08/04 10:03:54;;;;;;;11.32;6.70;;;;;;;;;;5054408;28;20081;-76
2023/08/04 10:06:21;;;;;;;11.13;6.97;;;;;;;;;;5059420;28;20128;-75
2023/08/04 10:08:48;;;;;;;12.05;6.32;;;;;;;;;;5055632;28;20027;-75
2023/08/04 10:11:15;;;;;;;9.80;6.53;;;;;;;;;;5053528;28;20059;-75
2023/08/04 10:13:43;;;;;;;10.20;5.50;;;;;;;;;;5052307;28;20029;-76
2023/08/04 10:16:11;;;;;;;11.35;6.28;;;;;;;;;;5059101;28;20551;-75
2023/08/04 10:18:50;;;;;;;11.75;6.10;;;;;;;;;;5057867;28;20214;-75
2023/08/04 10:21:17;;;;;;;13.23;7.03;;;;;;;;;;5061713;28;20395;-68
2023/08/04 10:23:44;;;;;;;7.80;5.28;;;;;;;;;;5054556;28;20024;-68
2023/08/04 10:26:13;;;;;;;7.25;4.90;;;;;;;;;;5055548;28;20032;-68
2023/08/04 10:28:57;;;;;;;11.07;5.30;;;;;;;;;;5056421;28;20107;-68
2023/08/04 10:31:39;;;;;;;8.48;5.32;;;;;;;;;;5056045;28;20069;-68
2023/08/04 10:34:19;;;;;;;9.75;4.93;;;;;;;;;;5054040;28;20045;-69
2023/08/04 10:36:55;;;;;;;7.30;5.15;;;;;;;;;;5059063;28;20035;-68
2023/08/04 10:39:29;;;;;;;11.05;5.47;;;;;;;;;;5049821;28;20105;-68
2023/08/04 10:41:55;;;;;;;8.63;5.40;;;;;;;;;;5053926;28;20544;-68
2023/08/04 10:44:25;;;;;;;7.82;5.05;;;;;;;;;;5057255;28;20111;-70
2023/08/04 10:46:52;;;;;;;9.73;5.18;;;;;;;;;;5046144;28;20086;-68
2023/08/04 10:49:18;;;;;;;8.75;4.63;;;;;;;;;;5048369;28;20033;-68
2023/08/04 10:51:46;;;;;;;9.93;5.45;;;;;;;;;;5052825;28;20020;-69
2023/08/04 10:54:12;;;;;;;9.48;5.50;;;;;;;;;;5065996;28;20020;-68
2023/08/04 10:56:38;;;;;;;9.35;5.40;;;;;;;;;;5053327;28;20083;-68
2023/08/04 10:59:08;;;;;;;10.20;5.93;;;;;;;;;;5068340;28;20028;-68
2023/08/04 11:01:35;;;;;;;6.85;5.05;;;;;;;;;;5055313;28;20025;-69
2023/08/04 11:04:01;;;;;;;9.38;5.80;;;;;;;;;;5055025;28;20135;-69
2023/08/04 11:06:27;;;;;;;10.90;5.15;;;;;;;;;;5054855;28;20559;-69
2023/08/04 11:08:53;;;;;;;9.10;5.68;;;;;;;;;;5051095;28;21225;-69
2023/08/04 11:11:19;;;;;;;9.73;5.20;;;;;;;;;;5053970;28;20028;-68
2023/08/04 11:13:45;;;;;;;9.40;6.55;;;;;;;;;;5070853;28;20445;-68
2023/08/04 11:16:16;;;;;;;9.35;5.78;;;;;;;;;;5050786;28;20028;-68
2023/08/04 11:18:42;;;;;;;7.57;6.07;;;;;;;;;;5051909;28;20423;-68
2023/08/04 11:21:08;;;;;;;9.25;5.60;;;;;;;;;;5055094;28;20078;-68
2023/08/04 11:23:34;;;;;;;8.68;6.13;;;;;;;;;;5054367;28;20040;-68
2023/08/04 11:26:00;;;;;;;8.40;5.68;;;;;;;;;;5053811;28;20040;-68
2023/08/04 11:28:28;;;;;;;10.00;6.00;;;;;;;;;;5056145;28;20388;-68
2023/08/04 11:31:03;;;;;;;10.02;5.53;;;;;;;;;;5055396;28;20120;-69
2023/08/04 11:33:30;;;;;;;8.88;5.45;;;;;;;;;;5050996;28;20472;-69
2023/08/04 11:35:56;;;;;;;11.20;6.07;;;;;;;;;;5052060;28;20416;-72
2023/08/04 11:38:22;;;;;;;9.18;6.45;;;;;;;;;;5056410;28;20091;-69
2023/08/04 11:41:04;;;;;;;9.90;6.00;;;;;;;;;;5051132;28;20447;-72
2023/08/04 11:43:31;;;;;;;9.18;5.03;;;;;;;;;;5067701;28;20048;-69
2023/08/04 11:45:58;;;;;;;10.32;5.18;;;;;;;;;;5057588;28;20040;-70
2023/08/04 11:48:24;;;;;;;9.40;5.80;;;;;;;;;;5048737;28;20031;-70
2023/08/04 11:50:55;;;;;;;7.47;4.85;;;;;;;;;;5051456;28;20028;-71
2023/08/04 11:53:22;;;;;;;9.60;5.22;;;;;;;;;;5052191;28;20032;-70
2023/08/04 11:55:56;;;;;;;7.60;4.82;;;;;;;;;;5066383;28;20075;-69
2023/08/04 11:58:29;;;;;;;7.57;5.03;;;;;;;;;;5054503;28;20064;-72
2023/08/04 12:01:03;;;;;;;7.55;5.20;;;;;;;;;;5057316;28;20728;-74
2023/08/04 12:03:46;;;;;;;7.20;4.60;;;;;;;;;;5051899;28;20079;-74
2023/08/04 12:06:16;;;;;;;10.52;4.95;;;;;;;;;;5066275;28;20029;-75
2023/08/04 12:08:50;;;;;;;7.75;4.90;;;;;;;;;;5056026;28;20032;-75
2023/08/04 12:11:16;;;;;;;6.40;4.15;;;;;;;;;;5054448;28;20103;-75
2023/08/04 12:13:42;;;;;;;9.05;5.10;;;;;;;;;;5056596;28;20028;-75
2023/08/04 12:16:09;;;;;;;8.60;4.70;;;;;;;;;;5057270;28;20032;-74
2023/08/04 12:18:39;;;;;;;7.30;4.22;;;;;;;;;;5056081;28;20093;-74
2023/08/04 12:21:05;;;;;;;7.60;3.88;;;;;;;;;;5050257;28;20021;-74
2023/08/04 12:23:32;;;;;;;7.22;4.32;;;;;;;;;;5056570;28;20037;-74
2023/08/04 12:25:58;;;;;;;8.00;4.00;;;;;;;;;;5050955;28;20100;-74
2023/08/04 12:28:24;;;;;;;12.63;4.32;;;;;;;;;;5064184;28;20552;-75
2023/08/04 12:30:51;;;;;;;8.65;4.28;;;;;;;;;;5073926;28;20029;-75
2023/08/04 12:33:17;;;;;;;5.22;3.63;;;;;;;;;;5058365;28;20548;-75
2023/08/04 12:35:46;;;;;;;6.93;4.00;;;;;;;;;;5054698;28;20041;-75
2023/08/04 12:38:12;;;;;;;10.70;4.97;;;;;;;;;;5056143;28;20025;-74
2023/08/04 12:40:39;;;;;;;7.80;4.57;;;;;;;;;;5055517;28;20058;-75
2023/08/04 12:43:05;;;;;;;6.07;3.83;;;;;;;;;;5058704;28;20029;-74
2023/08/04 12:45:31;;;;;;;5.50;4.28;;;;;;;;;;5057645;28;20380;-75
2023/08/04 12:48:06;;;;;;;8.90;4.53;;;;;;;;;;5060244;28;20029;-71
2023/08/04 12:50:33;;;;;;;4.78;3.78;;;;;;;;;;5050892;28;20075;-69
2023/08/04 12:53:01;;;;;;;8.40;4.13;;;;;;;;;;5056984;28;20149;-73
2023/08/04 12:55:27;;;;;;;8.50;4.20;;;;;;;;;;5049745;28;20388;-70
2023/08/04 12:57:53;;;;;;;7.20;4.35;;;;;;;;;;5052368;28;20028;-71
2023/08/04 13:00:19;;;;;;;9.73;5.22;;;;;;;;;;5050440;28;20442;-70
2023/08/04 13:02:46;;;;;;;8.15;4.55;;;;;;;;;;5053611;28;20571;-71
2023/08/04 13:05:12;;;;;;;7.43;4.50;;;;;;;;;;5051381;28;20043;-71
2023/08/04 13:07:39;;;;;;;9.90;4.15;;;;;;;;;;5056960;28;20036;-71
2023/08/04 13:10:05;;;;;;;8.52;4.10;;;;;;;;;;5070101;28;20626;-71
2023/08/04 13:12:34;;;;;;;7.95;3.80;;;;;;;;;;5059241;28;20031;-71
2023/08/04 13:15:00;;;;;;;5.43;3.95;;;;;;;;;;5054984;28;20031;-71
2023/08/04 13:17:26;;;;;;;5.93;4.13;;;;;;;;;;5053233;28;20029;-70
2023/08/04 13:19:52;;;;;;;6.50;4.35;;;;;;;;;;5047992;28;20035;-70
2023/08/04 13:22:18;;;;;;;8.15;4.28;;;;;;;;;;5052831;28;20408;-70
2023/08/04 13:24:44;;;;;;;7.22;4.22;;;;;;;;;;5054268;28;20579;-71
2023/08/04 13:27:20;;;;;;;6.63;3.90;;;;;;;;;;5055436;28;20029;-70
2023/08/04 13:29:48;;;;;;;7.78;3.45;;;;;;;;;;5070065;28;20028;-76
2023/08/04 13:32:17;;;;;;;7.43;3.40;;;;;;;;;;5053748;28;21076;-77
2023/08/04 13:34:49;;;;;;;8.63;3.88;;;;;;;;;;5054185;28;20048;-76
2023/08/04 13:37:15;;;;;;;7.40;3.63;;;;;;;;;;5058510;28;20360;-76
2023/08/04 13:39:41;;;;;;;7.30;4.40;;;;;;;;;;5055366;28;20471;-76
2023/08/04 13:42:07;;;;;;;8.98;3.78;;;;;;;;;;5049963;28;20384;-77
2023/08/04 13:44:37;;;;;;;9.23;4.38;;;;;;;;;;5055583;28;20059;-77
2023/08/04 13:47:03;;;;;;;8.13;3.58;;;;;;;;;;5053377;28;20134;-75
2023/08/04 13:49:29;;;;;;;4.93;3.83;;;;;;;;;;5055886;28;20052;-77
2023/08/04 13:51:59;;;;;;;4.75;2.97;;;;;;;;;;5066242;28;20029;-76
2023/08/04 13:54:25;;;;;;;5.55;2.85;;;;;;;;;;5053553;28;20560;-77
2023/08/04 13:56:51;;;;;;;7.65;4.18;;;;;;;;;;5049617;28;20028;-77
2023/08/04 13:59:17;;;;;;;5.93;3.05;;;;;;;;;;5052312;28;21141;-77
2023/08/04 14:01:43;;;;;;;6.38;3.53;;;;;;;;;;5052933;28;20028;-75
2023/08/04 14:04:09;;;;;;;6.18;3.28;;;;;;;;;;5054254;28;20094;-77
2023/08/04 14:06:35;;;;;;;6.68;3.40;;;;;;;;;;5051661;28;20385;-77
2023/08/04 14:09:02;;;;;;;5.45;3.88;;;;;;;;;;5056206;28;20138;-78
2023/08/04 14:11:31;;;;;;;5.50;3.30;;;;;;;;;;5056139;28;20032;-76
2023/08/04 14:13:57;;;;;;;6.10;3.88;;;;;;;;;;5059241;28;20092;-75
2023/08/04 14:16:23;;;;;;;5.20;3.13;;;;;;;;;;5057503;28;20024;-77
2023/08/04 14:18:49;;;;;;;5.72;3.40;;;;;;;;;;5054960;28;20031;-76
2023/08/04 14:21:15;;;;;;;4.93;3.13;;;;;;;;;;5050374;28;20029;-76
2023/08/04 14:23:41;;;;;;;8.50;3.70;;;;;;;;;;5051558;28;20059;-77
2023/08/04 14:26:08;;;;;;;8.45;3.45;;;;;;;;;;5054624;28;20033;-77
2023/08/04 14:28:34;;;;;;;4.43;3.03;;;;;;;;;;5052193;28;20119;-77
2023/08/04 14:31:00;;;;;;;5.65;3.63;;;;;;;;;;5044572;28;20511;-76